Terminal Aerodrome Forecast
Issued by NWS

Home | Current Version | Previous Version | Text Only | Print | Product List | Glossary On
Versions: 1 2 3 4 5 6 7 8 9 10 11 12 13
377
FTUS45 KGGW 102320
TAFSDY
TAF
KSDY 102320Z 1100/1124 36011KT P6SM OVC019
     FM110300 36005KT P6SM OVC015
     FM111200 08007KT 5SM -SN OVC008
     FM111800 10006KT P6SM VCSH OVC008
      AMD LTD TO CLD VIS AND WIND=

USA.gov is the U.S. government's official web portal to all federal, state and local government web resources and services.